Country
Station

 

Weather  for  Luqa  -  Malta    Malta

  
35 °C (95 °F)
    
 
 

Current METAR for Luqa is :

LMML 021145Z 24010KT 210V280 CAVOK 35/09 Q1012 NOSIG

 

This is a report for Luqa - Malta.
 
The report was made 20 minutes ago, at 11:45 UTC .
The wind was blowing at a speed of 5.1 meters per second (11.5 miles per hour) from west/southwest (240°), varying between south/southwest (210°) and west (280°).
 
The temperature was 35 °C (95 °F), with a dew-point at 9 °C (48 °F).
The temperature felt like 33 °C (92 °F).
 
The atmospheric pressure was 1012 hPa (29.88 inHg).
The relative humidity was 20.4%.
 
There were no clouds below 1500 meter (5000 feet) and no cumulonimbus clouds.
 
The overall visibility was greater than 10 kilometers (6.2 miles).
 

 
 
 
 

Country :   A   B   C   D   E   F   G   H   I   J   K   L   M   N   O   P   Q   R   S   T   U   V   W   Y   Z

 

Site Info  |  Disclaimer  |  Credits  |  Privacy
Contact us  |  Add to favorites
© 2013-2020 METARs - All rights reserved